createdAt,value
2018-12-17T00:02:03.241Z,24.57
2018-12-17T00:04:32.635Z,25.60
2018-12-17T00:07:01.882Z,26.25
2018-12-17T00:09:29.111Z,24.82
2018-12-17T00:11:56.380Z,27.98
2018-12-17T00:14:23.776Z,28.00
2018-12-17T00:16:52.165Z,26.82
2018-12-17T00:19:20.680Z,25.25
2018-12-17T00:21:47.911Z,28.12
2018-12-17T00:24:15.341Z,25.02
2018-12-17T00:26:42.676Z,26.70
2018-12-17T00:29:10.984Z,27.30
2018-12-17T00:31:40.256Z,27.40
2018-12-17T00:34:07.637Z,27.55
2018-12-17T00:36:34.941Z,24.23
2018-12-17T00:39:02.731Z,25.12
2018-12-17T00:41:31.972Z,26.10
2018-12-17T00:43:59.204Z,24.67
2018-12-17T00:46:26.428Z,26.70
2018-12-17T00:48:53.793Z,25.85
2018-12-17T00:51:21.464Z,26.80
2018-12-17T00:53:48.724Z,27.98
2018-12-17T00:56:17.331Z,26.52
2018-12-17T00:58:44.567Z,25.82
2018-12-17T01:01:13.770Z,25.80
2018-12-17T01:03:43.012Z,28.85
2018-12-17T01:06:10.264Z,28.87
2018-12-17T01:08:37.516Z,27.82
2018-12-17T01:11:05.827Z,30.75
2018-12-17T01:13:33.043Z,26.50
2018-12-17T01:16:05.425Z,26.85
2018-12-17T01:18:32.847Z,24.90
2018-12-17T01:21:01.242Z,25.62
2018-12-17T01:23:28.600Z,25.37
2018-12-17T01:25:56.204Z,26.97
2018-12-17T01:28:23.560Z,28.10
2018-12-17T01:30:51.804Z,26.37
2018-12-17T01:33:19.312Z,26.40
2018-12-17T01:35:46.633Z,25.90
2018-12-17T01:38:13.936Z,27.85
2018-12-17T01:40:41.272Z,26.60
2018-12-17T01:43:08.606Z,27.60
2018-12-17T01:45:35.827Z,25.02
2018-12-17T01:48:03.136Z,26.35
2018-12-17T01:50:30.361Z,25.90
2018-12-17T01:52:57.564Z,25.97
2018-12-17T01:55:24.898Z,26.55
2018-12-17T01:57:52.300Z,27.70
2018-12-17T02:00:19.595Z,27.82
2018-12-17T02:02:46.851Z,26.00
2018-12-17T02:05:15.201Z,25.55
2018-12-17T02:07:42.560Z,25.75
2018-12-17T02:10:09.869Z,27.45
2018-12-17T02:12:37.135Z,28.10
2018-12-17T02:15:05.658Z,23.47
2018-12-17T02:17:34.156Z,24.72
2018-12-17T02:20:02.165Z,26.20
2018-12-17T02:22:29.528Z,26.48
2018-12-17T02:24:56.773Z,25.82
2018-12-17T02:27:24.004Z,25.00
2018-12-17T02:29:51.232Z,26.30
2018-12-17T02:32:18.485Z,24.45
2018-12-17T02:34:45.737Z,27.22
2018-12-17T02:37:14.977Z,27.70
2018-12-17T02:39:42.188Z,23.62
2018-12-17T02:42:09.393Z,26.68
2018-12-17T02:44:36.633Z,27.07
2018-12-17T02:47:05.132Z,25.27
2018-12-17T02:49:32.388Z,24.67
2018-12-17T02:51:59.637Z,27.05
2018-12-17T02:54:26.856Z,25.85
2018-12-17T02:56:55.212Z,27.85
2018-12-17T02:59:22.440Z,26.15
2018-12-17T03:01:50.112Z,28.45
2018-12-17T03:04:17.366Z,26.27
2018-12-17T03:06:44.605Z,25.95
2018-12-17T03:09:11.884Z,28.25
2018-12-17T03:11:39.226Z,28.00
2018-12-17T03:14:06.604Z,30.70
2018-12-17T03:16:33.861Z,27.70
2018-12-17T03:19:01.099Z,26.02
2018-12-17T03:21:28.353Z,24.82
2018-12-17T03:23:55.969Z,24.60
2018-12-17T03:26:23.226Z,25.72
2018-12-17T03:28:51.865Z,25.90
2018-12-17T03:31:20.480Z,27.95
2018-12-17T03:33:47.760Z,25.82
2018-12-17T03:36:15.124Z,26.87
2018-12-17T03:38:44.387Z,27.25
2018-12-17T03:41:11.679Z,26.45
2018-12-17T03:43:55.856Z,26.97
2018-12-17T03:46:24.193Z,26.75
2018-12-17T03:48:52.469Z,24.43
2018-12-17T03:51:19.728Z,28.75
2018-12-17T03:53:48.093Z,26.23
2018-12-17T03:56:15.356Z,25.40
2018-12-17T03:58:42.896Z,27.20
2018-12-17T04:01:10.132Z,27.65
2018-12-17T04:03:39.472Z,26.40
2018-12-17T04:06:06.756Z,25.40
2018-12-17T04:08:34.042Z,26.40
2018-12-17T04:11:01.321Z,25.25
2018-12-17T04:13:29.779Z,25.45
2018-12-17T04:15:57.038Z,27.87
2018-12-17T04:18:24.726Z,27.65
2018-12-17T04:20:53.086Z,28.83
2018-12-17T04:23:20.329Z,24.43
2018-12-17T04:25:49.573Z,26.48
2018-12-17T04:28:18.217Z,26.68
2018-12-17T04:30:45.462Z,26.85
2018-12-17T04:33:12.865Z,25.62
2018-12-17T04:35:41.240Z,26.02
2018-12-17T04:38:08.537Z,24.70
2018-12-17T04:40:37.857Z,25.05
2018-12-17T04:43:06.344Z,24.90
2018-12-17T04:45:37.588Z,26.45
2018-12-17T04:48:04.957Z,24.40
2018-12-17T04:50:32.214Z,25.70
2018-12-17T04:53:01.524Z,25.17
2018-12-17T04:55:30.272Z,25.92
2018-12-17T04:57:57.757Z,26.85
2018-12-17T05:00:25.141Z,26.70
2018-12-17T05:02:52.437Z,26.27
2018-12-17T05:05:23.289Z,24.40
2018-12-17T05:07:50.680Z,26.27
2018-12-17T05:10:18.533Z,25.43
2018-12-17T05:12:45.804Z,26.45
2018-12-17T05:15:13.061Z,25.80
2018-12-17T05:17:40.308Z,24.70
2018-12-17T05:20:07.549Z,25.85
2018-12-17T05:22:34.949Z,25.23
2018-12-17T05:25:02.204Z,30.97
2018-12-17T05:27:29.453Z,30.80
2018-12-17T05:29:56.838Z,27.15
2018-12-17T05:32:24.096Z,28.30
2018-12-17T05:34:51.342Z,25.85
2018-12-17T05:37:18.604Z,26.48
2018-12-17T05:39:45.846Z,25.85
2018-12-17T05:42:13.081Z,27.27
2018-12-17T05:46:09.871Z,26.97
2018-12-17T05:48:54.080Z,27.00
2018-12-17T05:51:21.432Z,26.45
2018-12-17T05:53:48.785Z,28.70
2018-12-17T05:56:16.026Z,24.80
2018-12-17T05:58:43.261Z,28.15
2018-12-17T06:01:10.521Z,25.17
2018-12-17T06:03:37.741Z,26.00
2018-12-17T06:06:04.972Z,28.60
2018-12-17T06:08:32.226Z,27.10
2018-12-17T06:10:59.553Z,29.77
2018-12-17T06:13:26.905Z,26.93
2018-12-17T06:15:54.469Z,26.17
2018-12-17T06:18:21.700Z,29.02
2018-12-17T06:20:49.172Z,27.67
2018-12-17T06:23:16.547Z,26.37
2018-12-17T06:25:43.756Z,29.42
2018-12-17T06:28:10.980Z,28.02
2018-12-17T06:30:38.484Z,26.50
2018-12-17T06:33:05.972Z,30.08
2018-12-17T06:35:33.420Z,27.87
2018-12-17T06:38:00.656Z,26.60
2018-12-17T06:40:27.888Z,26.55
2018-12-17T06:42:55.256Z,30.32
2018-12-17T06:45:22.475Z,27.75
2018-12-17T06:47:49.704Z,27.42
2018-12-17T06:50:17.040Z,29.30
2018-12-17T06:52:44.284Z,28.70
2018-12-17T06:55:11.508Z,31.02
2018-12-17T06:57:38.824Z,29.67
2018-12-17T07:00:06.428Z,30.45
2018-12-17T07:02:33.783Z,30.30
2018-12-17T07:05:01.012Z,31.30
2018-12-17T07:07:28.314Z,31.10
2018-12-17T07:09:55.563Z,30.10
2018-12-17T07:12:22.934Z,29.98
2018-12-17T07:14:50.281Z,32.35
2018-12-17T07:17:18.640Z,31.87
2018-12-17T07:19:45.880Z,29.50
2018-12-17T07:22:13.113Z,32.98
2018-12-17T07:24:40.359Z,30.77
2018-12-17T07:27:07.608Z,29.75
2018-12-17T07:29:34.836Z,30.68
2018-12-17T07:32:03.100Z,31.25
2018-12-17T07:34:30.556Z,33.48
2018-12-17T07:36:58.356Z,29.50
2018-12-17T07:39:26.420Z,32.23
2018-12-17T07:41:53.653Z,32.88
2018-12-17T07:44:20.872Z,32.63
2018-12-17T07:46:48.170Z,32.38
2018-12-17T07:49:15.391Z,31.48
2018-12-17T07:51:42.628Z,33.02
2018-12-17T07:54:10.888Z,31.12
2018-12-17T07:56:38.168Z,32.10
2018-12-17T07:59:05.424Z,30.25
2018-12-17T08:01:32.852Z,31.20
2018-12-17T08:04:00.192Z,33.30
2018-12-17T08:06:27.400Z,33.55
2018-12-17T08:08:54.696Z,33.35
2018-12-17T08:11:21.951Z,32.05
2018-12-17T08:13:49.218Z,33.30
2018-12-17T08:16:16.557Z,35.83
2018-12-17T08:18:43.800Z,32.48
2018-12-17T08:21:11.028Z,31.23
2018-12-17T08:23:38.256Z,32.55
2018-12-17T08:26:05.484Z,34.65
2018-12-17T08:28:32.757Z,33.13
2018-12-17T08:30:59.977Z,34.18
2018-12-17T08:33:27.208Z,31.80
2018-12-17T08:35:54.424Z,33.38
2018-12-17T08:38:21.649Z,34.10
2018-12-17T08:40:48.868Z,30.75
2018-12-17T08:43:16.112Z,31.70
2018-12-17T08:45:43.349Z,31.05
2018-12-17T08:48:10.703Z,31.62
2018-12-17T08:50:37.932Z,31.07
2018-12-17T08:53:05.164Z,31.17
2018-12-17T08:55:32.390Z,34.05
2018-12-17T08:57:59.637Z,34.45
2018-12-17T09:00:26.976Z,32.73
2018-12-17T09:02:55.385Z,31.82
2018-12-17T09:05:22.622Z,31.00
2018-12-17T09:07:50.193Z,30.77
2018-12-17T09:10:17.424Z,32.08
2018-12-17T09:12:44.668Z,32.73
2018-12-17T09:15:11.914Z,32.10
2018-12-17T09:17:39.144Z,31.48
2018-12-17T09:20:07.148Z,32.03
2018-12-17T09:22:34.507Z,30.30
2018-12-17T09:25:01.864Z,31.52
2018-12-17T09:27:29.332Z,31.23
2018-12-17T09:29:56.599Z,32.65
2018-12-17T09:32:24.095Z,30.68
2018-12-17T09:34:51.324Z,33.95
2018-12-17T09:37:18.641Z,33.28
2018-12-17T09:39:45.924Z,28.95
2018-12-17T09:42:13.184Z,28.95
2018-12-17T09:44:40.464Z,28.90
2018-12-17T09:47:07.728Z,27.10
2018-12-17T09:49:34.980Z,31.23
2018-12-17T09:52:02.272Z,28.55
2018-12-17T09:54:29.510Z,29.00
2018-12-17T09:56:56.744Z,30.15
2018-12-17T09:59:23.998Z,27.98
2018-12-17T10:01:51.575Z,28.32
2018-12-17T10:04:19.251Z,28.73
2018-12-17T10:06:46.712Z,29.30
2018-12-17T10:09:13.957Z,28.73
2018-12-17T10:11:41.212Z,26.20
2018-12-17T10:14:08.495Z,30.95
2018-12-17T10:16:36.013Z,29.63
2018-12-17T10:19:03.264Z,28.73
2018-12-17T10:21:30.809Z,31.85
2018-12-17T10:23:58.573Z,29.48
2018-12-17T10:26:26.956Z,31.33
2018-12-17T10:28:54.804Z,31.75
2018-12-17T10:31:22.036Z,31.17
2018-12-17T10:33:49.272Z,31.48
2018-12-17T10:36:16.623Z,33.60
2018-12-17T10:38:43.892Z,31.15
2018-12-17T10:41:11.163Z,31.90
2018-12-17T10:43:41.518Z,31.50
2018-12-17T10:46:10.787Z,29.45
2018-12-17T10:48:39.068Z,30.25
2018-12-17T10:51:06.328Z,29.98
2018-12-17T10:53:33.585Z,28.80
2018-12-17T10:56:00.820Z,32.80
2018-12-17T10:58:30.244Z,30.90
2018-12-17T11:01:03.168Z,27.13
2018-12-17T11:03:35.200Z,28.02
2018-12-17T11:06:06.488Z,33.33
2018-12-17T11:08:33.835Z,31.48
2018-12-17T11:11:01.104Z,31.02
2018-12-17T11:13:30.385Z,32.20
2018-12-17T11:15:57.916Z,31.20
2018-12-17T11:18:25.292Z,31.77
2018-12-17T11:20:52.617Z,29.72
2018-12-17T11:23:19.989Z,28.38
2018-12-17T11:25:47.253Z,32.88
2018-12-17T11:28:15.606Z,32.80
2018-12-17T11:30:46.537Z,30.72
2018-12-17T11:33:13.501Z,31.23
2018-12-17T11:35:41.344Z,32.70
2018-12-17T11:38:08.697Z,32.42
2018-12-17T11:40:36.068Z,30.08
2018-12-17T11:43:04.208Z,31.12
2018-12-17T11:45:31.689Z,38.13
2018-12-17T11:47:58.960Z,34.40
2018-12-17T11:50:26.189Z,32.50
2018-12-17T11:52:53.532Z,30.17
2018-12-17T11:55:21.056Z,30.17
2018-12-17T11:58:04.296Z,29.75
2018-12-17T12:00:33.864Z,31.75
2018-12-17T12:03:01.225Z,31.17
2018-12-17T12:05:28.617Z,31.65
2018-12-17T12:07:55.896Z,30.68
2018-12-17T12:10:23.293Z,32.78
2018-12-17T12:12:50.644Z,31.45
2018-12-17T12:15:18.064Z,30.35
2018-12-17T12:17:45.308Z,32.00
2018-12-17T12:20:12.692Z,33.25
2018-12-17T12:22:40.033Z,29.85
2018-12-17T12:25:07.389Z,29.95
2018-12-17T12:27:34.652Z,29.50
2018-12-17T12:30:01.929Z,29.98
2018-12-17T12:32:29.530Z,32.42
2018-12-17T12:34:57.092Z,32.30
2018-12-17T12:37:24.319Z,30.60
2018-12-17T12:39:51.557Z,31.73
2018-12-17T12:42:18.797Z,31.70
2018-12-17T12:44:46.082Z,34.85
2018-12-17T12:47:13.340Z,32.33
2018-12-17T12:49:40.589Z,32.20
2018-12-17T12:52:07.823Z,34.03
2018-12-17T12:54:36.128Z,33.20
2018-12-17T12:57:04.467Z,30.70
2018-12-17T12:59:39.881Z,31.40
2018-12-17T13:02:14.335Z,30.77
2018-12-17T13:04:43.069Z,30.92
2018-12-17T13:07:10.421Z,39.18
2018-12-17T13:09:38.772Z,33.30
2018-12-17T13:12:05.997Z,32.13
2018-12-17T13:14:33.236Z,33.25
2018-12-17T13:17:05.040Z,32.98
2018-12-17T13:19:32.333Z,30.88
2018-12-17T13:21:59.552Z,36.00
2018-12-17T13:24:26.797Z,31.93
2018-12-17T13:26:54.008Z,30.65
2018-12-17T13:29:21.260Z,33.10
2018-12-17T13:31:48.484Z,33.33
2018-12-17T13:34:15.715Z,34.27
2018-12-17T13:36:42.940Z,32.93
2018-12-17T13:39:10.188Z,31.45
2018-12-17T13:41:37.533Z,30.45
2018-12-17T13:44:04.818Z,31.68
2018-12-17T13:46:32.064Z,35.38
2018-12-17T13:48:59.632Z,32.55
2018-12-17T13:51:33.432Z,32.42
2018-12-17T13:54:01.400Z,32.70
2018-12-17T13:56:29.008Z,32.10
2018-12-17T13:58:56.564Z,32.23
2018-12-17T14:01:24.032Z,31.80
2018-12-17T14:03:51.264Z,33.05
2018-12-17T14:06:18.952Z,31.00
2018-12-17T14:08:46.352Z,33.90
2018-12-17T14:11:13.597Z,31.70
2018-12-17T14:13:40.877Z,30.37
2018-12-17T14:16:15.029Z,31.48
2018-12-17T14:18:49.349Z,33.53
2018-12-17T14:21:22.636Z,33.78
2018-12-17T14:23:49.868Z,29.82
2018-12-17T14:26:17.120Z,31.95
2018-12-17T14:28:44.520Z,31.57
2018-12-17T14:31:11.760Z,33.88
2018-12-17T14:33:39.013Z,32.45
2018-12-17T14:36:08.918Z,31.57
2018-12-17T14:38:37.400Z,29.52
2018-12-17T14:41:05.328Z,29.25
2018-12-17T14:43:33.047Z,30.40
2018-12-17T14:46:00.288Z,29.70
2018-12-17T14:48:27.564Z,30.37
2018-12-17T14:50:54.830Z,28.15
2018-12-17T14:53:22.176Z,30.90
2018-12-17T14:55:49.681Z,28.70
2018-12-17T14:58:16.928Z,27.77
2018-12-17T15:00:44.150Z,30.85
2018-12-17T15:03:11.388Z,27.98
2018-12-17T15:05:38.979Z,29.05
2018-12-17T15:08:06.316Z,29.00
2018-12-17T15:10:33.569Z,28.12
2018-12-17T15:13:01.250Z,27.93
2018-12-17T15:15:28.485Z,28.52
2018-12-17T15:17:56.824Z,30.68
2018-12-17T15:20:24.142Z,27.05
2018-12-17T15:22:51.369Z,28.32
2018-12-17T15:25:18.599Z,27.45
2018-12-17T15:27:45.873Z,27.37
2018-12-17T15:30:13.338Z,29.50
2018-12-17T15:32:40.696Z,27.07
2018-12-17T15:35:07.941Z,26.35
2018-12-17T15:37:35.176Z,28.62
2018-12-17T15:40:03.172Z,26.02
2018-12-17T15:42:32.680Z,26.97
2018-12-17T15:44:59.916Z,27.90
2018-12-17T15:47:27.488Z,26.30
2018-12-17T15:49:54.716Z,26.45
2018-12-17T15:52:21.977Z,27.15
2018-12-17T15:54:49.265Z,26.02
2018-12-17T15:57:16.581Z,26.70
2018-12-17T15:59:43.801Z,28.15
2018-12-17T16:02:11.040Z,29.27
2018-12-17T16:04:38.280Z,27.80
2018-12-17T16:07:05.527Z,27.52
2018-12-17T16:09:32.956Z,23.95
2018-12-17T16:12:00.197Z,26.77
2018-12-17T16:14:28.473Z,29.30
2018-12-17T16:16:55.740Z,28.17
2018-12-17T16:19:22.989Z,28.47
2018-12-17T16:21:50.425Z,26.80
2018-12-17T16:24:19.680Z,27.10
2018-12-17T16:26:46.942Z,26.30
2018-12-17T16:29:14.180Z,31.82
2018-12-17T16:31:41.584Z,29.85
2018-12-17T16:34:08.829Z,26.27
2018-12-17T16:36:36.404Z,27.20
2018-12-17T16:39:06.201Z,29.50
2018-12-17T16:41:35.472Z,25.60
2018-12-17T16:44:02.852Z,26.57
2018-12-17T16:46:30.228Z,28.45
2018-12-17T16:48:57.512Z,28.73
2018-12-17T16:51:24.773Z,28.57
2018-12-17T16:53:52.029Z,27.58
2018-12-17T16:56:19.316Z,28.17
2018-12-17T16:59:03.489Z,27.02
2018-12-17T17:01:30.720Z,26.62
2018-12-17T17:03:57.972Z,28.70
2018-12-17T17:06:25.236Z,29.60
2018-12-17T17:08:52.545Z,27.07
2018-12-17T17:11:19.800Z,28.90
2018-12-17T17:13:47.257Z,31.30
2018-12-17T17:16:14.769Z,28.65
2018-12-17T17:18:42.218Z,29.05
2018-12-17T17:21:09.456Z,30.95
2018-12-17T17:23:36.700Z,29.67
2018-12-17T17:26:04.104Z,29.37
2018-12-17T17:28:31.396Z,29.87
2018-12-17T17:30:58.792Z,32.05
2018-12-17T17:33:26.257Z,28.52
2018-12-17T17:35:54.512Z,32.13
2018-12-17T17:38:21.769Z,30.10
2018-12-17T17:40:50.472Z,29.07
2018-12-17T17:43:18.861Z,31.87
2018-12-17T17:45:46.127Z,32.73
2018-12-17T17:48:14.481Z,30.43
2018-12-17T17:53:38.505Z,28.32
2018-12-17T17:56:05.801Z,28.98
2018-12-17T17:58:33.265Z,30.25
2018-12-17T18:01:00.636Z,29.12
2018-12-17T18:03:27.870Z,28.55
2018-12-17T18:05:55.125Z,29.92
2018-12-17T18:08:22.352Z,31.52
2018-12-17T18:10:49.581Z,28.27
2018-12-17T18:13:16.848Z,27.45
2018-12-17T18:15:44.100Z,30.45
2018-12-17T18:18:11.336Z,30.50
2018-12-17T18:20:38.719Z,31.27
2018-12-17T18:23:05.948Z,30.65
2018-12-17T18:25:33.320Z,28.30
2018-12-17T18:28:00.610Z,31.52
2018-12-17T18:30:27.861Z,29.45
2018-12-17T18:32:55.587Z,30.45
2018-12-17T18:35:23.246Z,28.85
2018-12-17T18:37:50.500Z,29.77
2018-12-17T18:40:19.223Z,30.20
2018-12-17T18:42:46.600Z,29.07
2018-12-17T18:45:13.833Z,30.90
2018-12-17T18:47:41.108Z,30.32
2018-12-17T18:50:09.965Z,31.60
2018-12-17T18:52:37.344Z,30.25
2018-12-17T18:55:05.380Z,28.95
2018-12-17T18:57:32.640Z,28.50
2018-12-17T19:00:00.001Z,29.87
2018-12-17T19:02:33.062Z,29.63
2018-12-17T19:04:57.344Z,30.17
2018-12-17T19:07:24.931Z,28.95
2018-12-17T19:09:52.220Z,27.62
2018-12-17T19:12:19.868Z,28.10
2018-12-17T19:14:47.236Z,27.15
2018-12-17T19:17:15.592Z,27.82
2018-12-17T19:19:43.214Z,28.30
2018-12-17T19:22:11.604Z,29.27
2018-12-17T19:24:38.913Z,27.80
2018-12-17T19:27:06.337Z,29.02
2018-12-17T19:29:33.601Z,26.80
2018-12-17T19:32:02.884Z,27.82
2018-12-17T19:34:30.439Z,28.77
2018-12-17T19:36:57.702Z,27.93
2018-12-17T19:39:24.953Z,37.78
2018-12-17T19:41:52.301Z,31.68
2018-12-17T19:44:36.660Z,30.37
2018-12-17T19:47:03.916Z,29.25
2018-12-17T19:49:31.305Z,29.92
2018-12-17T19:51:58.720Z,29.90
2018-12-17T19:54:25.963Z,30.62
2018-12-17T19:56:53.472Z,30.30
2018-12-17T19:59:21.912Z,28.55
2018-12-17T20:01:49.188Z,28.77
2018-12-17T20:04:18.588Z,27.32
2018-12-17T20:06:46.041Z,28.90
2018-12-17T20:09:13.436Z,29.18
2018-12-17T20:11:41.112Z,29.15
2018-12-17T20:14:09.397Z,28.65
2018-12-17T20:16:36.780Z,28.92
2018-12-17T20:19:04.057Z,30.72
2018-12-17T20:21:31.444Z,29.45
2018-12-17T20:23:58.688Z,32.28
2018-12-17T20:26:25.928Z,28.30
2018-12-17T20:28:53.444Z,30.30
2018-12-17T20:31:20.678Z,30.77
2018-12-17T20:33:47.936Z,29.45
2018-12-17T20:36:15.320Z,28.20
2018-12-17T20:38:42.612Z,29.50
2018-12-17T20:41:09.888Z,30.02
2018-12-17T20:43:37.176Z,32.95
2018-12-17T20:46:04.556Z,30.08
2018-12-17T20:48:31.809Z,28.35
2018-12-17T20:50:59.124Z,27.77
2018-12-17T20:53:26.344Z,27.52
2018-12-17T20:55:53.616Z,27.32
2018-12-17T20:58:21.020Z,28.23
2018-12-17T21:00:48.288Z,27.62
2018-12-17T21:03:15.573Z,27.02
2018-12-17T21:05:43.104Z,26.20
2018-12-17T21:08:10.726Z,26.93
2018-12-17T21:10:39.093Z,25.45
2018-12-17T21:13:06.501Z,24.87
2018-12-17T21:15:33.747Z,27.40
2018-12-17T21:18:01.004Z,29.37
2018-12-17T21:20:28.249Z,25.80
2018-12-17T21:22:55.608Z,26.85
2018-12-17T21:25:22.960Z,24.75
2018-12-17T21:27:51.392Z,26.30
2018-12-17T21:30:18.634Z,27.02
2018-12-17T21:32:45.988Z,25.75
2018-12-17T21:35:13.340Z,24.77
2018-12-17T21:37:40.593Z,25.95
2018-12-17T21:40:08.493Z,27.70
2018-12-17T21:42:35.753Z,25.62
2018-12-17T21:45:05.417Z,24.93
2018-12-17T21:47:34.345Z,24.13
2018-12-17T21:50:02.245Z,25.50
2018-12-17T21:52:29.801Z,27.53
2018-12-17T21:54:57.032Z,26.10
2018-12-17T21:57:24.280Z,26.02
2018-12-17T21:59:51.541Z,27.22
2018-12-17T22:02:19.062Z,25.90
2018-12-17T22:04:46.617Z,25.50
2018-12-17T22:07:13.978Z,24.53
2018-12-17T22:09:41.500Z,25.83
2018-12-17T22:12:08.757Z,28.10
2018-12-17T22:14:36.107Z,25.47
2018-12-17T22:17:03.625Z,26.33
2018-12-17T22:19:30.969Z,27.25
2018-12-17T22:21:59.418Z,26.52
2018-12-17T22:24:26.924Z,27.48
2018-12-17T22:26:54.167Z,30.33
2018-12-17T22:29:21.532Z,26.37
2018-12-17T22:31:48.960Z,26.55
2018-12-17T22:34:16.320Z,31.55
2018-12-17T22:36:43.541Z,28.90
2018-12-17T22:39:11.000Z,24.07
2018-12-17T22:41:38.236Z,25.52
2018-12-17T22:44:05.468Z,24.43
2018-12-17T22:46:33.060Z,24.70
2018-12-17T22:49:00.637Z,26.07
2018-12-17T22:51:27.928Z,25.02
2018-12-17T22:53:55.340Z,26.67
2018-12-17T22:56:23.593Z,25.40
2018-12-17T22:58:50.848Z,26.63
2018-12-17T23:01:18.240Z,25.60
2018-12-17T23:03:45.588Z,24.30
2018-12-17T23:06:12.829Z,24.43
2018-12-17T23:08:51.360Z,23.93
2018-12-17T23:11:34.239Z,25.40
2018-12-17T23:14:13.173Z,22.70
2018-12-17T23:16:52.016Z,22.55
2018-12-17T23:19:18.509Z,21.73
2018-12-17T23:21:47.884Z,22.50
2018-12-17T23:24:17.125Z,25.50
2018-12-17T23:26:44.520Z,23.77
2018-12-17T23:29:11.852Z,21.10
2018-12-17T23:31:39.292Z,21.95
2018-12-17T23:34:06.680Z,20.53
2018-12-17T23:36:33.900Z,20.77
2018-12-17T23:39:01.337Z,19.27
2018-12-17T23:41:30.612Z,18.92
2018-12-17T23:43:57.967Z,18.20
2018-12-17T23:46:25.192Z,18.95
2018-12-17T23:48:52.580Z,17.67
2018-12-17T23:51:20.153Z,16.70
2018-12-17T23:53:47.409Z,16.20
2018-12-17T23:56:15.480Z,16.75
2018-12-17T23:58:42.832Z,16.30
